Mountain Park, North Carolina
Current Conditions -  °F | °C
As of 10:55 PM on Tuesday 25 Nov 2014 (Local Time) from KUKF Reporting Station
Overcast Overcast  
Wind Chill: 45°   Ceiling: 5500
Heat Index: 45°   Visibility: 10mi
Dew Point: 34°   Wind: 3mph
Humidity: 66%   Direction: 50°NE
Pressure: 30.13"   Gusts: NA
Location:  36.3943°N, 80.8906°W
Report Text: KUKF 260355Z AUTO 05003KT 10SM BKN055 BKN065 OVC110 07/01 A3013 RMK AO2
Loading
Personal Weather Stations






























Interactive Weather Map New forecast layout! Learn more

10-Day Weather Forecast

Advertisements
Track Severe Weather on mobile